BBC Nile — V2FI3 — position and weather

sailwx.info

Track history (hours):
 
Tides and Currents Weather Stations Pressure Air Temp Water Temp Dewpoint Dewpoint Depression Visibility Wind Speed Wind Dir Waves Ship Positions

BBC Nile

Last reported at 2018-Jun-16 22:36 UTC. Time now 2018-Jun-21 23:59 UTC.
Position N 09°11' W 079°52'.

Length 143 m; draft 9.6 m.

Type: Ship. MMSI: 305682000.

Date/timePositionNaut miles runAvg speedWind from/ knotsBaromVisibWave heightAir tempDewpointWater temp
2018-Jun-16 22:36N 09°11' W 079°52'110.8
2018-Jun-16 22:30N 09°11' W 079°53'5 9.3
2018-Jun-16 22:00N 09°15' W 079°55'0 0.3
2018-Jun-16 20:43N 09°15' W 079°55'0 0.1
2018-Jun-16 19:29N 09°15' W 079°55'0 0.0
2018-Jun-16 15:47N 09°15' W 079°55'0 0.0
2018-Jun-16 15:23N 09°15' W 079°55'0 0.0
2018-Jun-16 11:56N 09°15' W 079°55'0 0.0
2018-Jun-16 11:25N 09°15' W 079°55'0 0.1
2018-Jun-16 10:55N 09°15' W 079°55'0 0.1
2018-Jun-16 10:28N 09°16' W 079°55'0 0.1
2018-Jun-16 09:53N 09°15' W 079°55'0 0.0
2018-Jun-16 09:23N 09°15' W 079°55'0 0.2
2018-Jun-16 08:58N 09°16' W 079°55'0 0.2
2018-Jun-16 08:25N 09°15' W 079°55'0 0.0
2018-Jun-16 07:58N 09°15' W 079°55'0 0.1
2018-Jun-16 07:28N 09°15' W 079°55'0 0.1
2018-Jun-16 06:56N 09°16' W 079°55'0 0.1
2018-Jun-16 06:26N 09°15' W 079°55'0 0.1
2018-Jun-16 05:49N 09°15' W 079°55'1 2.4
2018-Jun-16 05:19N 09°14' W 079°55'8 9.3
2018-Jun-16 04:29N 09°10' W 079°49'3 1.8
2018-Jun-16 02:43N 09°11' W 079°52'311.1
2018-Jun-16 02:25N 09°12' W 079°55'4 9.1
2018-Jun-16 02:00N 09°16' W 079°55'0 0.6
2018-Jun-16 01:30N 09°16' W 079°55'0 0.4
2018-Jun-16 01:00N 09°16' W 079°55'0 0.3
2018-Jun-16 00:30N 09°17' W 079°55'0 0.6
2018-Jun-15 23:49N 09°17' W 079°55'1 3.2
2018-Jun-15 23:30N 09°18' W 079°55'4 7.2
2018-Jun-15 23:01N 09°22' W 079°55'1 2.6
2018-Jun-15 22:30N 09°23' W 079°55'0 0.0
2018-Jun-15 22:00N 09°23' W 079°55'0 0.0
2018-Jun-15 21:30N 09°23' W 079°55'0 0.0
2018-Jun-15 21:00N 09°23' W 079°55'0 0.1
2018-Jun-15 20:30N 09°23' W 079°55'0 0.1
2018-Jun-15 20:00N 09°23' W 079°55'0 0.0
2018-Jun-15 19:30N 09°23' W 079°55'0 0.1
2018-Jun-15 19:00N 09°23' W 079°55'0 0.1
2018-Jun-15 18:30N 09°23' W 079°55'0 0.0
2018-Jun-15 18:00N 09°23' W 079°55'0 0.0
2018-Jun-15 17:30N 09°23' W 079°55'0 0.0
2018-Jun-15 17:00N 09°23' W 079°55'0 0.0
2018-Jun-15 16:30N 09°23' W 079°55'0 0.0
2018-Jun-15 16:00N 09°23' W 079°55'0 0.0
2018-Jun-15 15:30N 09°23' W 079°55'0 0.0
2018-Jun-15 15:00N 09°23' W 079°55'0 0.0
2018-Jun-15 14:30N 09°23' W 079°55'0 0.0
2018-Jun-15 14:00N 09°23' W 079°55'0 0.0
2018-Jun-15 13:30N 09°23' W 079°55'0 0.1
2018-Jun-15 13:00N 09°23' W 079°55'0 0.0
2018-Jun-15 12:27N 09°23' W 079°55'0 0.0
2018-Jun-15 12:00N 09°23' W 079°55'0 0.0
2018-Jun-15 11:30N 09°23' W 079°55'0 0.2
2018-Jun-15 11:00N 09°23' W 079°55'0 0.1
2018-Jun-15 10:27N 09°23' W 079°55'0 0.0
2018-Jun-15 10:00N 09°23' W 079°55'0 0.0
2018-Jun-15 09:30N 09°23' W 079°55'0 0.0
2018-Jun-15 09:00N 09°23' W 079°55'0 0.0
2018-Jun-15 08:30N 09°23' W 079°55'0 0.0
2018-Jun-15 08:00N 09°23' W 079°55'0 0.0
2018-Jun-15 07:30N 09°23' W 079°55'0 0.0
2018-Jun-15 07:00N 09°23' W 079°55'0 0.1
2018-Jun-15 06:21N 09°23' W 079°55'0 0.0
2018-Jun-15 06:00N 09°23' W 079°55'0 0.0
2018-Jun-15 05:30N 09°23' W 079°55'0 0.1
2018-Jun-15 05:00N 09°23' W 079°55'0 0.1
2018-Jun-15 04:30N 09°23' W 079°55'0 0.1
2018-Jun-15 04:00N 09°23' W 079°55'0 0.0
2018-Jun-15 03:30N 09°23' W 079°55'0 0.1
2018-Jun-15 03:00N 09°23' W 079°55'0 0.1
2018-Jun-15 02:30N 09°23' W 079°55'0 0.2
2018-Jun-15 02:00N 09°23' W 079°55'2 4.1
2018-Jun-15 01:30N 09°25' W 079°54'3 5.1
2018-Jun-15 00:59N 09°22' W 079°53'0 0.9
2018-Jun-15 00:29N 09°22' W 079°53'0 0.0
2018-Jun-14 23:59N 09°22' W 079°53'0 0.0
2018-Jun-14 23:29N 09°22' W 079°53'0 0.0
2018-Jun-14 22:59N 09°22' W 079°53'0 0.0
2018-Jun-14 22:29N 09°22' W 079°53'0 0.0
2018-Jun-14 21:59N 09°22' W 079°53'0 0.0
2018-Jun-14 21:29N 09°22' W 079°53'0 0.0
2018-Jun-14 20:59N 09°22' W 079°53'0 0.0
2018-Jun-14 20:29N 09°22' W 079°53'0 0.0
2018-Jun-14 19:59N 09°22' W 079°53'0 0.0
2018-Jun-14 19:29N 09°22' W 079°53'0 0.0
2018-Jun-14 18:59N 09°22' W 079°53'0 0.0
2018-Jun-14 18:29N 09°22' W 079°53'0 0.0
2018-Jun-14 17:59N 09°22' W 079°53'0 0.0
2018-Jun-14 17:29N 09°22' W 079°53'0 0.0
2018-Jun-14 16:59N 09°22' W 079°53'0 0.0
2018-Jun-14 16:29N 09°22' W 079°53'0 0.0
2018-Jun-14 15:59N 09°22' W 079°53'0 0.0
2018-Jun-14 15:29N 09°22' W 079°53'0 0.0
2018-Jun-14 14:59N 09°22' W 079°53'0 0.0
2018-Jun-14 14:29N 09°22' W 079°53'0 0.0
2018-Jun-14 13:59N 09°22' W 079°53'0 0.0
2018-Jun-14 13:29N 09°22' W 079°53'0 0.0
2018-Jun-14 12:59N 09°22' W 079°53'0 0.0
2018-Jun-14 12:29N 09°22' W 079°53'0 0.0
2018-Jun-14 11:59N 09°22' W 079°53'0 0.0
2018-Jun-14 11:29N 09°22' W 079°53'0 0.0
2018-Jun-14 10:59N 09°22' W 079°53'0 0.0
2018-Jun-14 10:29N 09°22' W 079°53'0 0.0
2018-Jun-14 09:59N 09°22' W 079°53'0 0.0
2018-Jun-14 09:29N 09°22' W 079°53'0 0.0
2018-Jun-14 09:00N 09°22' W 079°53'0 1.0
2018-Jun-14 08:30N 09°22' W 079°54'3 5.6
2018-Jun-14 08:00N 09°25' W 079°54'4 8.3
2018-Jun-14 07:30N 09°29' W 079°55'0 0.8
2018-Jun-14 07:00N 09°29' W 079°55'611.6
2018-Jun-14 06:30N 09°34' W 079°53'612.1
2018-Jun-14 06:00N 09°40' W 079°51'  
2018-Jun-10 04:25N 25°43' W 079°26'33 0.7
2018-Jun-08 06:54N 26°16' W 079°27'410.1
2018-Jun-08 06:30N 26°15' W 079°31'612.4
2018-Jun-08 06:00N 26°13' W 079°38'713.7
2018-Jun-08 05:30N 26°11' W 079°45'713.8
2018-Jun-08 05:00N 26°09' W 079°52'713.8
2018-Jun-08 04:30N 26°06' W 079°59'510.5
2018-Jun-08 04:00N 26°05' W 080°05'2 3.0
2018-Jun-08 03:22N 26°05' W 080°07'0 0.0
2018-Jun-08 02:55N 26°05' W 080°07'0 0.0
2018-Jun-08 02:25N 26°05' W 080°07'0 0.0
2018-Jun-08 01:55N 26°05' W 080°07'0 0.0
2018-Jun-08 01:25N 26°05' W 080°07'0 0.0
2018-Jun-08 00:55N 26°05' W 080°07'0 0.0
2018-Jun-08 00:25N 26°05' W 080°07'0 0.0
2018-Jun-07 23:58N 26°05' W 080°07'0 0.0
2018-Jun-07 23:28N 26°05' W 080°07'0 0.0
2018-Jun-07 22:58N 26°05' W 080°07'0 0.0
2018-Jun-07 22:28N 26°05' W 080°07'0 0.0
2018-Jun-07 21:58N 26°05' W 080°07'0 0.0
2018-Jun-07 21:28N 26°05' W 080°07'0 0.0
2018-Jun-07 20:58N 26°05' W 080°07'0 0.0
2018-Jun-07 20:28N 26°05' W 080°07'0 0.0
2018-Jun-07 19:58N 26°05' W 080°07'0 0.0
2018-Jun-07 19:28N 26°05' W 080°07'0 0.0
2018-Jun-07 18:58N 26°05' W 080°07'0 0.0
2018-Jun-07 18:28N 26°05' W 080°07'0 0.0
2018-Jun-07 17:58N 26°05' W 080°07'0 0.0
2018-Jun-07 17:28N 26°05' W 080°07'0 0.0
2018-Jun-07 16:49N 26°05' W 080°07'0 0.0
2018-Jun-07 16:16N 26°05' W 080°07'0 0.0
2018-Jun-07 15:49N 26°05' W 080°07'0 0.0
2018-Jun-07 15:19N 26°05' W 080°07'0 0.0
2018-Jun-07 14:52N 26°05' W 080°07'0 0.0
2018-Jun-07 14:22N 26°05' W 080°07'0 0.0
2018-Jun-07 13:52N 26°05' W 080°07'0 0.0
2018-Jun-07 13:22N 26°05' W 080°07'0 0.0
2018-Jun-07 12:55N 26°05' W 080°07'0 0.0
2018-Jun-07 12:25N 26°05' W 080°07'0 0.0
2018-Jun-07 11:55N 26°05' W 080°07'0 0.0
2018-Jun-07 11:22N 26°05' W 080°07'0 0.0
2018-Jun-07 10:55N 26°05' W 080°07'0 0.0
2018-Jun-07 10:28N 26°05' W 080°07'0 0.0
2018-Jun-07 09:58N 26°05' W 080°07'0 0.0
2018-Jun-07 09:28N 26°05' W 080°07'0 0.0
2018-Jun-07 08:58N 26°05' W 080°07'0 0.0
2018-Jun-07 08:28N 26°05' W 080°07'0 0.0
2018-Jun-07 07:58N 26°05' W 080°07'0 0.0
2018-Jun-07 07:28N 26°05' W 080°07'0 0.0
2018-Jun-07 06:58N 26°05' W 080°07'0 0.0
2018-Jun-07 06:28N 26°05' W 080°07'0 0.0
2018-Jun-07 05:58N 26°05' W 080°07'0 0.0
2018-Jun-07 05:28N 26°05' W 080°07'0 0.0
2018-Jun-07 04:58N 26°05' W 080°07'0 0.0
2018-Jun-07 04:28N 26°05' W 080°07'0 0.0
2018-Jun-07 03:58N 26°05' W 080°07'0 0.0
2018-Jun-07 03:28N 26°05' W 080°07'0 0.0
2018-Jun-07 02:49N 26°05' W 080°07'0 0.0
2018-Jun-07 02:28N 26°05' W 080°07'0 0.0
2018-Jun-07 01:49N 26°05' W 080°07'0 0.0
2018-Jun-07 01:22N 26°05' W 080°07'0 0.0
2018-Jun-07 00:52N 26°05' W 080°07'0 0.0
2018-Jun-07 00:22N 26°05' W 080°07'0 0.0
2018-Jun-06 23:52N 26°05' W 080°07'0 0.0
2018-Jun-06 23:28N 26°05' W 080°07'0 0.0
2018-Jun-06 22:55N 26°05' W 080°07'  
Track history (hours):
 
Tides and Currents Weather Stations Pressure Air Temp Water Temp Dewpoint Dewpoint Depression Visibility Wind Speed Wind Dir Waves Ship Positions

BBC Nile

Last reported at 2018-Jun-16 22:36 UTC. Time now 2018-Jun-21 23:59 UTC.
Position N 09°11' W 079°52'.

Length 143 m; draft 9.6 m.

Type: Ship. MMSI: 305682000.

Date/timePositionNaut miles runAvg speedWind from/ knotsBaromVisibWave heightAir tempDewpointWater temp
2018-Jun-16 22:36N 09°11' W 079°52'110.8
2018-Jun-16 22:30N 09°11' W 079°53'5 9.3
2018-Jun-16 22:00N 09°15' W 079°55'0 0.3
2018-Jun-16 20:43N 09°15' W 079°55'0 0.1
2018-Jun-16 19:29N 09°15' W 079°55'0 0.0
2018-Jun-16 15:47N 09°15' W 079°55'0 0.0
2018-Jun-16 15:23N 09°15' W 079°55'0 0.0
2018-Jun-16 11:56N 09°15' W 079°55'0 0.0
2018-Jun-16 11:25N 09°15' W 079°55'0 0.1
2018-Jun-16 10:55N 09°15' W 079°55'0 0.1
2018-Jun-16 10:28N 09°16' W 079°55'0 0.1
2018-Jun-16 09:53N 09°15' W 079°55'0 0.0
2018-Jun-16 09:23N 09°15' W 079°55'0 0.2
2018-Jun-16 08:58N 09°16' W 079°55'0 0.2
2018-Jun-16 08:25N 09°15' W 079°55'0 0.0
2018-Jun-16 07:58N 09°15' W 079°55'0 0.1
2018-Jun-16 07:28N 09°15' W 079°55'0 0.1
2018-Jun-16 06:56N 09°16' W 079°55'0 0.1
2018-Jun-16 06:26N 09°15' W 079°55'0 0.1
2018-Jun-16 05:49N 09°15' W 079°55'1 2.4
2018-Jun-16 05:19N 09°14' W 079°55'8 9.3
2018-Jun-16 04:29N 09°10' W 079°49'3 1.8
2018-Jun-16 02:43N 09°11' W 079°52'311.1
2018-Jun-16 02:25N 09°12' W 079°55'4 9.1
2018-Jun-16 02:00N 09°16' W 079°55'0 0.6
2018-Jun-16 01:30N 09°16' W 079°55'0 0.4
2018-Jun-16 01:00N 09°16' W 079°55'0 0.3
2018-Jun-16 00:30N 09°17' W 079°55'0 0.6
2018-Jun-15 23:49N 09°17' W 079°55'1 3.2
2018-Jun-15 23:30N 09°18' W 079°55'4 7.2
2018-Jun-15 23:01N 09°22' W 079°55'1 2.6
2018-Jun-15 22:30N 09°23' W 079°55'0 0.0
2018-Jun-15 22:00N 09°23' W 079°55'0 0.0
2018-Jun-15 21:30N 09°23' W 079°55'0 0.0
2018-Jun-15 21:00N 09°23' W 079°55'0 0.1
2018-Jun-15 20:30N 09°23' W 079°55'0 0.1
2018-Jun-15 20:00N 09°23' W 079°55'0 0.0
2018-Jun-15 19:30N 09°23' W 079°55'0 0.1
2018-Jun-15 19:00N 09°23' W 079°55'0 0.1
2018-Jun-15 18:30N 09°23' W 079°55'0 0.0
2018-Jun-15 18:00N 09°23' W 079°55'0 0.0
2018-Jun-15 17:30N 09°23' W 079°55'0 0.0
2018-Jun-15 17:00N 09°23' W 079°55'0 0.0
2018-Jun-15 16:30N 09°23' W 079°55'0 0.0
2018-Jun-15 16:00N 09°23' W 079°55'0 0.0
2018-Jun-15 15:30N 09°23' W 079°55'0 0.0
2018-Jun-15 15:00N 09°23' W 079°55'0 0.0
2018-Jun-15 14:30N 09°23' W 079°55'0 0.0
2018-Jun-15 14:00N 09°23' W 079°55'0 0.0
2018-Jun-15 13:30N 09°23' W 079°55'0 0.1
2018-Jun-15 13:00N 09°23' W 079°55'0 0.0
2018-Jun-15 12:27N 09°23' W 079°55'0 0.0
2018-Jun-15 12:00N 09°23' W 079°55'0 0.0
2018-Jun-15 11:30N 09°23' W 079°55'0 0.2
2018-Jun-15 11:00N 09°23' W 079°55'0 0.1
2018-Jun-15 10:27N 09°23' W 079°55'0 0.0
2018-Jun-15 10:00N 09°23' W 079°55'0 0.0
2018-Jun-15 09:30N 09°23' W 079°55'0 0.0
2018-Jun-15 09:00N 09°23' W 079°55'0 0.0
2018-Jun-15 08:30N 09°23' W 079°55'0 0.0
2018-Jun-15 08:00N 09°23' W 079°55'0 0.0
2018-Jun-15 07:30N 09°23' W 079°55'0 0.0
2018-Jun-15 07:00N 09°23' W 079°55'0 0.1
2018-Jun-15 06:21N 09°23' W 079°55'0 0.0
2018-Jun-15 06:00N 09°23' W 079°55'0 0.0
2018-Jun-15 05:30N 09°23' W 079°55'0 0.1
2018-Jun-15 05:00N 09°23' W 079°55'0 0.1
2018-Jun-15 04:30N 09°23' W 079°55'0 0.1
2018-Jun-15 04:00N 09°23' W 079°55'0 0.0
2018-Jun-15 03:30N 09°23' W 079°55'0 0.1
2018-Jun-15 03:00N 09°23' W 079°55'0 0.1
2018-Jun-15 02:30N 09°23' W 079°55'0 0.2
2018-Jun-15 02:00N 09°23' W 079°55'2 4.1
2018-Jun-15 01:30N 09°25' W 079°54'3 5.1
2018-Jun-15 00:59N 09°22' W 079°53'0 0.9
2018-Jun-15 00:29N 09°22' W 079°53'0 0.0
2018-Jun-14 23:59N 09°22' W 079°53'0 0.0
2018-Jun-14 23:29N 09°22' W 079°53'0 0.0
2018-Jun-14 22:59N 09°22' W 079°53'0 0.0
2018-Jun-14 22:29N 09°22' W 079°53'0 0.0
2018-Jun-14 21:59N 09°22' W 079°53'0 0.0
2018-Jun-14 21:29N 09°22' W 079°53'0 0.0
2018-Jun-14 20:59N 09°22' W 079°53'0 0.0
2018-Jun-14 20:29N 09°22' W 079°53'0 0.0
2018-Jun-14 19:59N 09°22' W 079°53'0 0.0
2018-Jun-14 19:29N 09°22' W 079°53'0 0.0
2018-Jun-14 18:59N 09°22' W 079°53'0 0.0
2018-Jun-14 18:29N 09°22' W 079°53'0 0.0
2018-Jun-14 17:59N 09°22' W 079°53'0 0.0
2018-Jun-14 17:29N 09°22' W 079°53'0 0.0
2018-Jun-14 16:59N 09°22' W 079°53'0 0.0
2018-Jun-14 16:29N 09°22' W 079°53'0 0.0
2018-Jun-14 15:59N 09°22' W 079°53'0 0.0
2018-Jun-14 15:29N 09°22' W 079°53'0 0.0
2018-Jun-14 14:59N 09°22' W 079°53'0 0.0
2018-Jun-14 14:29N 09°22' W 079°53'0 0.0
2018-Jun-14 13:59N 09°22' W 079°53'0 0.0
2018-Jun-14 13:29N 09°22' W 079°53'0 0.0
2018-Jun-14 12:59N 09°22' W 079°53'0 0.0
2018-Jun-14 12:29N 09°22' W 079°53'0 0.0
2018-Jun-14 11:59N 09°22' W 079°53'0 0.0
2018-Jun-14 11:29N 09°22' W 079°53'0 0.0
2018-Jun-14 10:59N 09°22' W 079°53'0 0.0
2018-Jun-14 10:29N 09°22' W 079°53'0 0.0
2018-Jun-14 09:59N 09°22' W 079°53'0 0.0
2018-Jun-14 09:29N 09°22' W 079°53'0 0.0
2018-Jun-14 09:00N 09°22' W 079°53'0 1.0
2018-Jun-14 08:30N 09°22' W 079°54'3 5.6
2018-Jun-14 08:00N 09°25' W 079°54'4 8.3
2018-Jun-14 07:30N 09°29' W 079°55'0 0.8
2018-Jun-14 07:00N 09°29' W 079°55'611.6
2018-Jun-14 06:30N 09°34' W 079°53'612.1
2018-Jun-14 06:00N 09°40' W 079°51'  
2018-Jun-10 04:25N 25°43' W 079°26'33 0.7
2018-Jun-08 06:54N 26°16' W 079°27'410.1
2018-Jun-08 06:30N 26°15' W 079°31'612.4
2018-Jun-08 06:00N 26°13' W 079°38'713.7
2018-Jun-08 05:30N 26°11' W 079°45'713.8
2018-Jun-08 05:00N 26°09' W 079°52'713.8
2018-Jun-08 04:30N 26°06' W 079°59'510.5
2018-Jun-08 04:00N 26°05' W 080°05'2 3.0
2018-Jun-08 03:22N 26°05' W 080°07'0 0.0
2018-Jun-08 02:55N 26°05' W 080°07'0 0.0
2018-Jun-08 02:25N 26°05' W 080°07'0 0.0
2018-Jun-08 01:55N 26°05' W 080°07'0 0.0
2018-Jun-08 01:25N 26°05' W 080°07'0 0.0
2018-Jun-08 00:55N 26°05' W 080°07'0 0.0
2018-Jun-08 00:25N 26°05' W 080°07'0 0.0
2018-Jun-07 23:58N 26°05' W 080°07'0 0.0
2018-Jun-07 23:28N 26°05' W 080°07'0 0.0
2018-Jun-07 22:58N 26°05' W 080°07'0 0.0
2018-Jun-07 22:28N 26°05' W 080°07'0 0.0
2018-Jun-07 21:58N 26°05' W 080°07'0 0.0
2018-Jun-07 21:28N 26°05' W 080°07'0 0.0
2018-Jun-07 20:58N 26°05' W 080°07'0 0.0
2018-Jun-07 20:28N 26°05' W 080°07'0 0.0
2018-Jun-07 19:58N 26°05' W 080°07'0 0.0
2018-Jun-07 19:28N 26°05' W 080°07'0 0.0
2018-Jun-07 18:58N 26°05' W 080°07'0 0.0
2018-Jun-07 18:28N 26°05' W 080°07'0 0.0
2018-Jun-07 17:58N 26°05' W 080°07'0 0.0
2018-Jun-07 17:28N 26°05' W 080°07'0 0.0
2018-Jun-07 16:49N 26°05' W 080°07'0 0.0
2018-Jun-07 16:16N 26°05' W 080°07'0 0.0
2018-Jun-07 15:49N 26°05' W 080°07'0 0.0
2018-Jun-07 15:19N 26°05' W 080°07'0 0.0
2018-Jun-07 14:52N 26°05' W 080°07'0 0.0
2018-Jun-07 14:22N 26°05' W 080°07'0 0.0
2018-Jun-07 13:52N 26°05' W 080°07'0 0.0
2018-Jun-07 13:22N 26°05' W 080°07'0 0.0
2018-Jun-07 12:55N 26°05' W 080°07'0 0.0
2018-Jun-07 12:25N 26°05' W 080°07'0 0.0
2018-Jun-07 11:55N 26°05' W 080°07'0 0.0
2018-Jun-07 11:22N 26°05' W 080°07'0 0.0
2018-Jun-07 10:55N 26°05' W 080°07'0 0.0
2018-Jun-07 10:28N 26°05' W 080°07'0 0.0
2018-Jun-07 09:58N 26°05' W 080°07'0 0.0
2018-Jun-07 09:28N 26°05' W 080°07'0 0.0
2018-Jun-07 08:58N 26°05' W 080°07'0 0.0
2018-Jun-07 08:28N 26°05' W 080°07'0 0.0
2018-Jun-07 07:58N 26°05' W 080°07'0 0.0
2018-Jun-07 07:28N 26°05' W 080°07'0 0.0
2018-Jun-07 06:58N 26°05' W 080°07'0 0.0
2018-Jun-07 06:28N 26°05' W 080°07'0 0.0
2018-Jun-07 05:58N 26°05' W 080°07'0 0.0
2018-Jun-07 05:28N 26°05' W 080°07'0 0.0
2018-Jun-07 04:58N 26°05' W 080°07'0 0.0
2018-Jun-07 04:28N 26°05' W 080°07'0 0.0
2018-Jun-07 03:58N 26°05' W 080°07'0 0.0
2018-Jun-07 03:28N 26°05' W 080°07'0 0.0
2018-Jun-07 02:49N 26°05' W 080°07'0 0.0
2018-Jun-07 02:28N 26°05' W 080°07'0 0.0
2018-Jun-07 01:49N 26°05' W 080°07'0 0.0
2018-Jun-07 01:22N 26°05' W 080°07'0 0.0
2018-Jun-07 00:52N 26°05' W 080°07'0 0.0
2018-Jun-07 00:22N 26°05' W 080°07'0 0.0
2018-Jun-06 23:52N 26°05' W 080°07'0 0.0
2018-Jun-06 23:28N 26°05' W 080°07'0 0.0
2018-Jun-06 22:55N 26°05' W 080°07'  

Dump ship's entire track history